createdAt,value
2022-08-16T00:01:42.523Z,7.20
2022-08-16T00:04:12.519Z,6.85
2022-08-16T00:06:40.321Z,6.32
2022-08-16T00:09:07.888Z,6.28
2022-08-16T00:11:41.429Z,6.13
2022-08-16T00:14:23.837Z,6.28
2022-08-16T00:17:16.146Z,7.50
2022-08-16T00:19:46.205Z,7.50
2022-08-16T00:22:15.407Z,7.90
2022-08-16T00:24:46.841Z,7.30
2022-08-16T00:27:18.092Z,8.45
2022-08-16T00:29:45.778Z,8.32
2022-08-16T00:32:17.953Z,7.65
2022-08-16T00:34:53.171Z,9.48
2022-08-16T00:37:58.744Z,8.55
2022-08-16T00:40:33.994Z,9.55
2022-08-16T00:43:11.899Z,5.82
2022-08-16T00:46:34.904Z,7.80
2022-08-16T00:49:17.759Z,6.35
2022-08-16T00:51:55.242Z,10.65
2022-08-16T00:54:28.083Z,8.93
2022-08-16T00:56:59.900Z,8.65
2022-08-16T00:59:33.004Z,8.52
2022-08-16T01:02:30.571Z,7.97
2022-08-16T01:05:10.383Z,8.43
2022-08-16T01:07:50.562Z,7.35
2022-08-16T01:10:31.411Z,9.82
2022-08-16T01:13:15.856Z,10.07
2022-08-16T01:15:56.343Z,9.10
2022-08-16T01:18:39.112Z,8.52
2022-08-16T01:21:33.714Z,9.32
2022-08-16T01:24:53.626Z,8.90
2022-08-16T01:27:12.386Z,8.82
2022-08-16T01:29:57.587Z,10.88
2022-08-16T01:32:33.187Z,10.90
2022-08-16T01:35:06.755Z,9.15
2022-08-16T01:37:54.114Z,7.88
2022-08-16T01:40:30.954Z,8.82
2022-08-16T01:42:58.609Z,8.68
2022-08-16T01:45:39.660Z,8.35
2022-08-16T01:48:19.972Z,7.53
2022-08-16T01:51:09.052Z,8.55
2022-08-16T01:53:40.442Z,9.07
2022-08-16T01:56:24.996Z,7.60
2022-08-16T01:58:55.708Z,7.43
2022-08-16T02:01:28.089Z,6.43
2022-08-16T02:03:58.680Z,5.63
2022-08-16T02:06:46.785Z,7.05
2022-08-16T02:09:17.896Z,8.73
2022-08-16T02:11:53.070Z,7.20
2022-08-16T02:14:27.927Z,9.95
2022-08-16T02:17:02.406Z,8.07
2022-08-16T02:20:00.108Z,10.10
2022-08-16T02:22:34.159Z,8.43
2022-08-16T02:25:11.783Z,8.20
2022-08-16T02:27:50.782Z,7.47
2022-08-16T02:30:37.946Z,9.02
2022-08-16T02:33:15.499Z,7.68
2022-08-16T02:35:53.765Z,9.45
2022-08-16T02:38:24.027Z,8.98
2022-08-16T02:40:54.656Z,8.10
2022-08-16T02:43:26.878Z,7.45
2022-08-16T02:45:57.002Z,7.05
2022-08-16T02:48:29.460Z,10.15
2022-08-16T02:51:06.146Z,10.10
2022-08-16T02:53:44.808Z,12.52
2022-08-16T02:56:15.628Z,10.80
2022-08-16T02:58:46.387Z,10.80
2022-08-16T03:01:24.578Z,12.23
2022-08-16T03:04:29.651Z,11.88
2022-08-16T03:06:56.755Z,9.43
2022-08-16T03:09:28.689Z,11.52
2022-08-16T03:11:57.566Z,11.48
2022-08-16T03:14:26.431Z,9.15
2022-08-16T03:16:59.256Z,8.75
2022-08-16T03:19:48.491Z,8.20
2022-08-16T03:22:28.856Z,9.77
2022-08-16T03:25:02.422Z,8.75
2022-08-16T03:27:32.771Z,9.32
2022-08-16T03:30:16.207Z,12.38
2022-08-16T03:32:47.182Z,11.98
2022-08-16T03:35:18.179Z,8.57
2022-08-16T03:38:01.503Z,9.45
2022-08-16T03:40:33.940Z,9.70
2022-08-16T03:43:20.366Z,13.05
2022-08-16T03:45:52.792Z,9.68
2022-08-16T03:48:36.415Z,8.75
2022-08-16T03:51:09.531Z,9.98
2022-08-16T03:53:38.439Z,11.15
2022-08-16T03:56:19.912Z,12.30
2022-08-16T03:58:51.056Z,10.55
2022-08-16T04:01:22.867Z,10.73
2022-08-16T04:03:52.932Z,8.15
2022-08-16T04:06:23.020Z,8.52
2022-08-16T04:08:50.672Z,12.32
2022-08-16T04:11:18.802Z,9.02
2022-08-16T04:14:00.302Z,8.68
2022-08-16T04:16:35.225Z,9.20
2022-08-16T04:19:04.804Z,7.47
2022-08-16T04:21:36.195Z,7.88
2022-08-16T04:24:14.566Z,6.90
2022-08-16T04:26:46.280Z,8.80
2022-08-16T04:29:23.785Z,8.18
2022-08-16T04:31:56.873Z,6.60
2022-08-16T04:34:30.997Z,6.32
2022-08-16T04:37:01.390Z,5.80
2022-08-16T04:39:44.985Z,6.15
2022-08-16T04:42:26.548Z,7.25
2022-08-16T04:44:58.530Z,10.80
2022-08-16T04:47:33.250Z,11.90
2022-08-16T04:50:18.155Z,11.10
2022-08-16T04:52:48.619Z,13.35
2022-08-16T04:55:37.655Z,10.57
2022-08-16T04:58:38.489Z,10.30
2022-08-16T05:00:55.454Z,12.18
2022-08-16T05:03:26.155Z,11.60
2022-08-16T05:05:59.580Z,9.02
2022-08-16T05:08:34.172Z,10.95
2022-08-16T05:11:08.524Z,9.25
2022-08-16T05:13:42.654Z,8.82
2022-08-16T05:16:24.514Z,13.57
2022-08-16T05:18:58.475Z,11.93
2022-08-16T05:21:38.298Z,10.80
2022-08-16T05:24:09.253Z,12.90
2022-08-16T05:26:40.967Z,15.32
2022-08-16T05:29:15.241Z,11.57
2022-08-16T05:31:44.256Z,11.20
2022-08-16T05:34:19.870Z,13.75
2022-08-16T05:36:51.174Z,11.23
2022-08-16T05:39:20.558Z,11.40
2022-08-16T05:41:49.096Z,11.85
2022-08-16T05:44:24.857Z,10.32
2022-08-16T05:46:56.022Z,13.20
2022-08-16T05:49:25.400Z,15.25
2022-08-16T05:52:10.833Z,14.13
2022-08-16T05:54:47.676Z,14.55
2022-08-16T05:57:26.631Z,16.50
2022-08-16T06:00:08.961Z,13.68
2022-08-16T06:02:37.774Z,13.00
2022-08-16T06:05:06.472Z,11.20
2022-08-16T06:07:39.164Z,11.75
2022-08-16T06:10:09.770Z,11.55
2022-08-16T06:12:37.942Z,13.70
2022-08-16T06:15:16.655Z,10.57
2022-08-16T06:17:45.529Z,13.65
2022-08-16T06:20:25.731Z,11.73
2022-08-16T06:23:11.611Z,11.13
2022-08-16T06:25:44.590Z,11.80
2022-08-16T06:28:36.127Z,11.07
2022-08-16T06:31:06.884Z,8.98
2022-08-16T06:33:41.746Z,9.13
2022-08-16T06:36:14.235Z,7.57
2022-08-16T06:38:55.647Z,8.05
2022-08-16T06:41:27.405Z,9.35
2022-08-16T06:43:56.559Z,8.00
2022-08-16T06:46:31.649Z,7.88
2022-08-16T06:49:05.602Z,7.22
2022-08-16T06:51:45.871Z,8.65
2022-08-16T06:54:16.737Z,8.13
2022-08-16T06:56:44.101Z,8.00
2022-08-16T06:59:11.525Z,8.25
2022-08-16T07:01:46.239Z,10.25
2022-08-16T07:04:33.380Z,9.80
2022-08-16T07:07:06.307Z,10.50
2022-08-16T07:09:37.706Z,10.18
2022-08-16T07:12:05.969Z,10.18
2022-08-16T07:14:35.046Z,9.70
2022-08-16T07:17:03.391Z,9.55
2022-08-16T07:20:03.865Z,8.93
2022-08-16T07:22:37.051Z,9.57
2022-08-16T07:25:14.206Z,9.93
2022-08-16T07:27:43.633Z,10.98
2022-08-16T07:30:39.319Z,9.02
2022-08-16T07:33:07.158Z,7.95
2022-08-16T07:35:35.170Z,8.70
2022-08-16T07:38:06.231Z,10.73
2022-08-16T07:41:00.638Z,9.52
2022-08-16T07:43:29.296Z,9.95
2022-08-16T07:45:57.339Z,9.30
2022-08-16T07:48:24.561Z,9.73
2022-08-16T07:50:56.627Z,9.00
2022-08-16T07:53:29.533Z,11.27
2022-08-16T07:56:00.656Z,11.13
2022-08-16T07:58:34.858Z,10.60
2022-08-16T08:01:10.600Z,9.82
2022-08-16T08:03:48.188Z,9.07
2022-08-16T08:06:24.930Z,9.40
2022-08-16T08:08:59.216Z,8.57
2022-08-16T08:11:29.900Z,10.07
2022-08-16T08:14:03.559Z,9.32
2022-08-16T08:16:33.233Z,9.88
2022-08-16T08:19:02.797Z,8.02
2022-08-16T08:22:00.150Z,9.80
2022-08-16T08:24:32.059Z,8.60
2022-08-16T08:27:04.348Z,11.02
2022-08-16T08:29:37.496Z,9.23
2022-08-16T08:32:57.945Z,7.65
2022-08-16T08:35:03.303Z,7.57
2022-08-16T08:37:51.175Z,8.23
2022-08-16T08:40:24.730Z,8.90
2022-08-16T08:43:11.751Z,9.48
2022-08-16T08:45:48.058Z,7.40
2022-08-16T08:48:33.246Z,8.18
2022-08-16T08:51:08.936Z,7.32
2022-08-16T08:53:38.281Z,8.07
2022-08-16T08:56:22.939Z,7.15
2022-08-16T08:58:58.877Z,7.85
2022-08-16T09:01:42.882Z,6.82
2022-08-16T09:04:14.712Z,7.30
2022-08-16T09:06:47.033Z,6.75
2022-08-16T09:09:16.863Z,6.93
2022-08-16T09:11:52.717Z,8.63
2022-08-16T09:14:28.317Z,8.35
2022-08-16T09:17:01.128Z,6.55
2022-08-16T09:19:34.721Z,7.75
2022-08-16T09:22:02.274Z,6.68
2022-08-16T09:24:51.388Z,6.20
2022-08-16T09:27:17.654Z,5.40
2022-08-16T09:29:46.380Z,6.70
2022-08-16T09:32:28.919Z,6.18
2022-08-16T09:35:01.657Z,4.70
2022-08-16T09:37:36.564Z,4.18
2022-08-16T09:40:31.888Z,4.68
2022-08-16T09:42:59.410Z,4.97
2022-08-16T09:45:29.021Z,4.03
2022-08-16T09:47:58.433Z,4.20
2022-08-16T09:50:37.236Z,4.38
2022-08-16T09:53:23.147Z,4.20
2022-08-16T09:55:56.858Z,6.18
2022-08-16T09:58:40.429Z,4.32
2022-08-16T10:01:08.740Z,4.32
2022-08-16T10:04:02.112Z,6.35
2022-08-16T10:06:33.454Z,4.90
2022-08-16T10:09:08.327Z,4.43
2022-08-16T10:12:11.040Z,5.03
2022-08-16T10:14:40.818Z,4.13
2022-08-16T10:17:13.664Z,3.47
2022-08-16T10:19:43.321Z,3.78
2022-08-16T10:22:12.731Z,3.90
2022-08-16T10:24:55.980Z,3.63
2022-08-16T10:27:45.674Z,12.07
2022-08-16T10:30:24.770Z,5.32
2022-08-16T10:32:54.210Z,5.63
2022-08-16T10:35:21.658Z,4.85
2022-08-16T10:37:52.400Z,4.53
2022-08-16T10:40:29.154Z,4.60
2022-08-16T10:43:02.380Z,3.15
2022-08-16T10:45:37.083Z,3.13
2022-08-16T10:48:23.932Z,3.83
2022-08-16T10:51:00.319Z,3.42
2022-08-16T10:53:34.059Z,4.72
2022-08-16T10:56:52.770Z,3.80
2022-08-16T10:59:29.630Z,3.90
2022-08-16T11:02:21.711Z,4.20
2022-08-16T11:13:56.909Z,4.28
2022-08-16T11:15:55.379Z,4.30
2022-08-16T11:19:03.900Z,5.43
2022-08-16T11:21:28.511Z,4.25
2022-08-16T11:23:58.811Z,4.28
2022-08-16T11:26:27.417Z,3.90
2022-08-16T11:29:13.269Z,4.35
2022-08-16T11:31:42.506Z,5.32
2022-08-16T11:34:14.740Z,4.10
2022-08-16T11:36:53.745Z,5.20
2022-08-16T11:39:30.436Z,7.50
2022-08-16T11:41:59.502Z,5.32
2022-08-16T11:44:52.905Z,4.80
2022-08-16T11:47:14.608Z,5.60
2022-08-16T11:49:41.978Z,5.85
2022-08-16T11:52:09.225Z,4.10
2022-08-16T11:54:37.524Z,5.25
2022-08-16T11:57:09.211Z,5.15
2022-08-16T11:59:40.032Z,6.38
2022-08-16T12:02:32.067Z,5.88
2022-08-16T12:04:57.837Z,5.28
2022-08-16T12:07:25.296Z,6.10
2022-08-16T12:09:55.807Z,5.47
2022-08-16T12:12:24.037Z,6.00
2022-08-16T12:14:59.846Z,5.85
2022-08-16T12:17:32.764Z,6.68
2022-08-16T12:20:02.259Z,6.88
2022-08-16T12:22:34.019Z,6.35
2022-08-16T12:25:17.818Z,6.28
2022-08-16T12:27:49.859Z,5.95
2022-08-16T12:30:26.976Z,7.03
2022-08-16T12:33:03.083Z,6.00
2022-08-16T12:35:33.417Z,6.28
2022-08-16T12:38:08.674Z,5.45
2022-08-16T12:40:55.531Z,6.07
2022-08-16T12:43:25.532Z,6.63
2022-08-16T12:45:55.846Z,6.40
2022-08-16T12:48:50.369Z,6.47
2022-08-16T12:51:24.075Z,6.82
2022-08-16T12:53:55.078Z,6.45
2022-08-16T12:56:29.739Z,6.28
2022-08-16T12:58:57.887Z,6.13
2022-08-16T13:01:34.178Z,6.97
2022-08-16T13:04:20.813Z,6.40
2022-08-16T13:06:52.454Z,6.88
2022-08-16T13:09:26.569Z,5.68
2022-08-16T13:12:15.952Z,5.55
2022-08-16T13:14:46.783Z,6.55
2022-08-16T13:17:29.846Z,8.77
2022-08-16T13:20:13.637Z,6.88
2022-08-16T13:22:50.960Z,7.03
2022-08-16T13:25:25.214Z,7.03
2022-08-16T13:28:02.343Z,7.25
2022-08-16T13:30:42.524Z,6.72
2022-08-16T13:33:29.559Z,7.10
2022-08-16T13:36:00.934Z,7.40
2022-08-16T13:38:32.654Z,7.88
2022-08-16T13:41:10.089Z,7.10
2022-08-16T13:43:39.449Z,7.22
2022-08-16T13:46:08.041Z,7.72
2022-08-16T13:48:44.067Z,8.63
2022-08-16T13:51:18.907Z,7.63
2022-08-16T13:53:49.662Z,7.18
2022-08-16T13:56:25.308Z,7.00
2022-08-16T13:58:54.874Z,7.53
2022-08-16T14:01:23.437Z,8.05
2022-08-16T14:03:54.562Z,7.88
2022-08-16T14:06:23.223Z,7.63
2022-08-16T14:08:59.140Z,6.70
2022-08-16T14:11:34.993Z,7.18
2022-08-16T14:14:05.703Z,6.38
2022-08-16T14:16:34.860Z,7.25
2022-08-16T14:19:03.896Z,7.55
2022-08-16T14:21:34.979Z,7.13
2022-08-16T14:24:22.130Z,12.82
2022-08-16T14:26:53.090Z,10.15
2022-08-16T14:29:21.210Z,8.18
2022-08-16T14:31:54.138Z,7.03
2022-08-16T14:34:25.730Z,6.78
2022-08-16T14:36:56.456Z,7.55
2022-08-16T14:39:24.265Z,6.57
2022-08-16T14:41:53.480Z,7.40
2022-08-16T14:44:23.870Z,7.57
2022-08-16T14:46:53.741Z,7.60
2022-08-16T14:49:20.994Z,9.88
2022-08-16T14:51:49.076Z,8.85
2022-08-16T14:54:16.563Z,6.88
2022-08-16T14:56:47.014Z,6.97
2022-08-16T14:59:24.027Z,7.15
2022-08-16T15:01:59.112Z,7.05
2022-08-16T15:04:47.742Z,6.18
2022-08-16T15:07:21.739Z,7.82
2022-08-16T15:10:01.675Z,5.75
2022-08-16T15:12:34.078Z,11.43
2022-08-16T15:15:12.505Z,9.95
2022-08-16T15:17:55.916Z,7.65
2022-08-16T15:20:29.540Z,5.90
2022-08-16T15:23:01.536Z,5.88
2022-08-16T15:25:41.205Z,6.57
2022-08-16T15:28:30.689Z,5.93
2022-08-16T15:31:03.633Z,5.47
2022-08-16T15:33:35.664Z,5.75
2022-08-16T15:36:07.855Z,6.45
2022-08-16T15:39:03.785Z,6.35
2022-08-16T15:41:38.773Z,5.72
2022-08-16T15:44:11.113Z,5.15
2022-08-16T15:46:56.906Z,6.80
2022-08-16T15:49:38.039Z,5.68
2022-08-16T15:52:29.756Z,5.00
2022-08-16T15:55:07.501Z,6.75
2022-08-16T15:57:41.461Z,7.30
2022-08-16T16:00:15.414Z,5.60
2022-08-16T16:02:44.094Z,7.53
2022-08-16T16:05:11.909Z,6.40
2022-08-16T16:07:55.837Z,7.22
2022-08-16T16:10:29.897Z,6.00
2022-08-16T16:13:00.934Z,5.85
2022-08-16T16:15:36.860Z,6.05
2022-08-16T16:18:09.678Z,5.53
2022-08-16T16:20:46.660Z,5.38
2022-08-16T16:23:23.571Z,5.15
2022-08-16T16:25:53.194Z,6.60
2022-08-16T16:29:05.393Z,4.68
2022-08-16T16:31:16.043Z,5.78
2022-08-16T16:33:47.780Z,5.57
2022-08-16T16:36:24.246Z,4.65
2022-08-16T16:38:54.544Z,4.85
2022-08-16T16:41:26.493Z,5.68
2022-08-16T16:43:56.077Z,5.82
2022-08-16T16:46:42.042Z,5.20
2022-08-16T16:49:14.049Z,5.40
2022-08-16T16:51:47.035Z,5.07
2022-08-16T16:54:28.044Z,4.75
2022-08-16T16:56:59.113Z,4.55
2022-08-16T16:59:28.471Z,4.47
2022-08-16T17:02:46.312Z,4.55
2022-08-16T17:04:48.696Z,4.60
2022-08-16T17:07:17.595Z,4.30
2022-08-16T17:09:47.947Z,4.53
2022-08-16T17:12:25.421Z,4.35
2022-08-16T17:15:05.320Z,4.75
2022-08-16T17:17:59.410Z,4.22
2022-08-16T17:20:25.200Z,4.45
2022-08-16T17:22:56.700Z,4.30
2022-08-16T17:25:27.191Z,4.40
2022-08-16T17:28:57.992Z,5.22
2022-08-16T17:30:54.510Z,4.75
2022-08-16T17:33:22.748Z,5.15
2022-08-16T17:35:55.313Z,4.80
2022-08-16T17:38:38.617Z,4.80
2022-08-16T17:41:12.652Z,4.60
2022-08-16T17:43:43.911Z,3.78
2022-08-16T17:46:50.734Z,4.22
2022-08-16T17:49:01.794Z,4.50
2022-08-16T17:51:29.008Z,4.47
2022-08-16T17:53:56.871Z,4.53
2022-08-16T17:56:24.447Z,6.50
2022-08-16T17:58:51.985Z,6.65
2022-08-16T18:01:26.561Z,6.30
2022-08-16T18:04:07.947Z,5.50
2022-08-16T18:06:38.739Z,7.03
2022-08-16T18:09:07.999Z,8.02
2022-08-16T18:11:42.978Z,8.00
2022-08-16T18:14:13.305Z,7.93
2022-08-16T18:16:41.453Z,7.97
2022-08-16T18:19:10.365Z,7.07
2022-08-16T18:21:56.402Z,7.45
2022-08-16T18:24:24.935Z,9.07
2022-08-16T18:26:53.154Z,10.55
2022-08-16T18:29:21.334Z,8.38
2022-08-16T18:31:50.998Z,8.18
2022-08-16T18:34:20.791Z,9.65
2022-08-16T18:36:48.413Z,9.38
2022-08-16T18:39:16.349Z,7.68
2022-08-16T18:41:47.175Z,9.80
2022-08-16T18:44:25.567Z,8.15
2022-08-16T18:46:55.653Z,7.10
2022-08-16T18:49:22.959Z,7.05
2022-08-16T18:51:51.053Z,7.28
2022-08-16T18:54:18.746Z,7.97
2022-08-16T18:56:54.271Z,8.27
2022-08-16T18:59:30.682Z,12.95
2022-08-16T19:02:04.854Z,12.60
2022-08-16T19:04:56.454Z,12.02
2022-08-16T19:07:31.151Z,12.85
2022-08-16T19:10:01.721Z,12.55
2022-08-16T19:12:38.898Z,12.57
2022-08-16T19:15:17.096Z,11.27
2022-08-16T19:17:45.678Z,13.00
2022-08-16T19:20:17.874Z,13.57
2022-08-16T19:25:48.859Z,15.07
2022-08-16T19:28:49.014Z,12.82
2022-08-16T19:31:28.899Z,14.02
2022-08-16T19:33:57.614Z,12.30
2022-08-16T19:36:35.643Z,11.38
2022-08-16T19:39:14.585Z,11.15
2022-08-16T19:41:53.009Z,9.15
2022-08-16T19:44:23.441Z,9.05
2022-08-16T19:46:51.397Z,7.95
2022-08-16T19:49:18.803Z,8.75
2022-08-16T19:51:48.122Z,8.70
2022-08-16T19:54:16.456Z,8.45
2022-08-16T19:56:43.967Z,8.88
2022-08-16T19:59:20.871Z,11.00
2022-08-16T20:01:52.649Z,11.10
2022-08-16T20:04:22.766Z,11.82
2022-08-16T20:06:52.457Z,13.18
2022-08-16T20:09:22.220Z,12.50
2022-08-16T20:11:52.473Z,10.88
2022-08-16T20:14:25.185Z,9.45
2022-08-16T20:16:56.781Z,9.02
2022-08-16T20:19:27.761Z,11.27
2022-08-16T20:21:56.916Z,11.77
2022-08-16T20:24:35.113Z,15.13
2022-08-16T20:27:06.447Z,12.57
2022-08-16T20:29:35.440Z,12.90
2022-08-16T20:32:08.311Z,13.23
2022-08-16T20:34:55.049Z,10.98
2022-08-16T20:37:23.222Z,13.50
2022-08-16T20:40:27.807Z,12.93
2022-08-16T20:42:41.576Z,13.65
2022-08-16T20:45:11.092Z,10.98
2022-08-16T20:47:38.596Z,11.60
2022-08-16T20:50:09.660Z,16.38
2022-08-16T20:52:37.145Z,11.73
2022-08-16T20:55:04.838Z,13.02
2022-08-16T20:57:32.140Z,10.80
2022-08-16T20:59:59.538Z,15.10
2022-08-16T21:02:27.485Z,12.48
2022-08-16T21:04:55.019Z,11.57
2022-08-16T21:07:22.855Z,11.55
2022-08-16T21:09:50.435Z,11.32
2022-08-16T21:12:17.955Z,11.90
2022-08-16T21:14:45.746Z,14.98
2022-08-16T21:17:16.194Z,15.13
2022-08-16T21:19:45.189Z,12.55
2022-08-16T21:22:22.621Z,12.68
2022-08-16T21:24:53.923Z,14.35
2022-08-16T21:27:24.406Z,12.13
2022-08-16T21:29:52.530Z,11.38
2022-08-16T21:32:35.644Z,12.18
2022-08-16T21:35:10.722Z,14.13
2022-08-16T21:37:39.293Z,13.93
2022-08-16T21:40:09.206Z,13.88
2022-08-16T21:42:40.404Z,11.02
2022-08-16T21:45:13.377Z,11.18
2022-08-16T21:47:41.057Z,12.38
2022-08-16T21:50:11.516Z,11.32
2022-08-16T21:52:39.284Z,12.05
2022-08-16T21:55:07.854Z,10.85
2022-08-16T21:57:36.276Z,14.50
2022-08-16T22:00:14.262Z,11.50
2022-08-16T22:02:41.839Z,11.63
2022-08-16T22:05:09.746Z,12.80
2022-08-16T22:07:37.388Z,11.73
2022-08-16T22:11:04.698Z,10.85
2022-08-16T22:12:54.085Z,9.30
2022-08-16T22:15:26.197Z,11.93
2022-08-16T22:17:56.631Z,9.52
2022-08-16T22:20:27.171Z,12.57
2022-08-16T22:23:18.777Z,14.82
2022-08-16T22:25:47.809Z,13.10
2022-08-16T22:28:17.757Z,12.32
2022-08-16T22:30:46.198Z,9.43
2022-08-16T22:33:19.613Z,10.20
2022-08-16T22:35:51.640Z,11.23
2022-08-16T22:38:53.676Z,13.93
2022-08-16T22:41:07.695Z,12.10
2022-08-16T22:43:35.102Z,13.85
2022-08-16T22:46:02.471Z,13.98
2022-08-16T22:48:29.707Z,15.05
2022-08-16T22:50:57.160Z,13.32
2022-08-16T22:53:26.971Z,14.10
2022-08-16T22:55:54.392Z,13.80
2022-08-16T22:58:36.603Z,13.10
2022-08-16T23:01:08.641Z,11.63
2022-08-16T23:03:37.310Z,15.27
2022-08-16T23:06:06.683Z,11.25
2022-08-16T23:08:39.272Z,15.82
2022-08-16T23:11:13.120Z,14.27
2022-08-16T23:13:50.138Z,12.60
2022-08-16T23:16:33.039Z,11.73
2022-08-16T23:19:08.073Z,11.57
2022-08-16T23:21:38.561Z,10.93
2022-08-16T23:24:08.430Z,10.07
2022-08-16T23:26:45.574Z,14.40
2022-08-16T23:29:23.432Z,15.75
2022-08-16T23:31:56.229Z,16.40
2022-08-16T23:34:24.315Z,14.27
2022-08-16T23:36:51.719Z,14.13
2022-08-16T23:39:19.020Z,15.32
2022-08-16T23:41:46.463Z,11.70
2022-08-16T23:44:55.286Z,12.05
2022-08-16T23:47:01.082Z,13.68
2022-08-16T23:49:56.418Z,13.38
2022-08-16T23:52:16.957Z,16.25
2022-08-16T23:54:44.165Z,17.08
2022-08-16T23:57:11.421Z,15.23
2022-08-16T23:59:53.627Z,13.77
